Time;durP1;ratioP1;P1;durP2;ratioP2;P2;SDS_P1;SDS_P2;PMS_P1;PMS_P2;Temp;Humidity;BMP_temperature;BMP_pressure;BME280_temperature;BME280_humidity;BME280_pressure;Samples;Min_cycle;Max_cycle;Signal;HPM_P1;HPM_P2
2023/11/11 00:00:49;;;;;;;12.35;6.40;;;4.30;99.90;;;;;;6243657;28;20053;-85
2023/11/11 00:03:50;;;;;;;10.73;5.40;;;4.30;99.90;;;;;;6226863;28;20140;-85
2023/11/11 00:06:53;;;;;;;13.07;5.70;;;4.30;99.90;;;;;;6268830;28;20139;-85
2023/11/11 00:09:54;;;;;;;12.57;5.95;;;4.30;99.90;;;;;;6244715;28;20052;-85
2023/11/11 00:12:56;;;;;;;16.55;6.18;;;4.30;99.90;;;;;;6250364;28;20052;-84
2023/11/11 00:15:57;;;;;;;11.35;5.32;;;4.30;99.90;;;;;;6249337;28;20045;-84
2023/11/11 00:18:59;;;;;;;11.13;5.10;;;4.30;99.90;;;;;;6226583;28;20084;-85
2023/11/11 00:22:01;;;;;;;10.75;5.30;;;4.30;99.90;;;;;;6266735;28;20049;-84
2023/11/11 00:25:03;;;;;;;12.70;5.53;;;4.20;99.90;;;;;;6244716;28;20038;-85
2023/11/11 00:28:05;;;;;;;12.70;5.75;;;4.20;99.90;;;;;;6264080;28;20510;-84
2023/11/11 00:31:09;;;;;;;11.98;5.35;;;4.20;99.90;;;;;;6226909;28;20057;-85
2023/11/11 00:34:11;;;;;;;12.95;5.50;;;4.20;99.90;;;;;;6226779;28;20060;-85
2023/11/11 00:37:12;;;;;;;10.95;5.10;;;4.20;99.90;;;;;;6269729;28;20056;-85
2023/11/11 00:40:14;;;;;;;11.93;5.00;;;4.20;99.90;;;;;;6228003;28;20060;-85
2023/11/11 00:43:16;;;;;;;11.82;5.72;;;4.20;99.90;;;;;;6249537;28;20079;-84
2023/11/11 00:46:17;;;;;;;11.95;4.95;;;4.20;99.90;;;;;;6229398;28;20352;-84
2023/11/11 00:49:19;;;;;;;13.10;5.40;;;4.20;99.90;;;;;;6251385;28;20049;-85
2023/11/11 00:52:21;;;;;;;11.02;4.43;;;4.20;99.90;;;;;;6228121;28;20056;-85
2023/11/11 00:55:23;;;;;;;11.20;5.03;;;4.10;99.90;;;;;;6251439;28;20432;-85
2023/11/11 00:58:25;;;;;;;9.18;4.72;;;4.10;99.90;;;;;;6247133;28;20049;-85
2023/11/11 01:01:27;;;;;;;10.10;4.80;;;4.10;99.90;;;;;;6232612;28;20054;-84
2023/11/11 01:04:29;;;;;;;12.90;4.85;;;4.10;99.90;;;;;;6232310;28;20064;-84
2023/11/11 01:07:30;;;;;;;13.65;4.70;;;4.10;99.90;;;;;;6272124;28;20057;-85
2023/11/11 01:10:37;;;;;;;12.57;4.30;;;4.00;99.90;;;;;;6249977;28;20057;-84
2023/11/11 01:13:38;;;;;;;9.60;4.28;;;4.10;99.90;;;;;;6233262;28;20558;-84
2023/11/11 01:16:40;;;;;;;11.90;4.82;;;4.10;99.90;;;;;;6255191;28;20068;-84
2023/11/11 01:19:42;;;;;;;9.55;4.65;;;4.10;99.90;;;;;;6231326;28;20084;-84
2023/11/11 01:22:43;;;;;;;9.68;4.53;;;4.10;99.90;;;;;;6272705;28;20504;-84
2023/11/11 01:25:45;;;;;;;10.25;5.07;;;4.10;99.90;;;;;;6231665;28;20068;-85
2023/11/11 01:28:47;;;;;;;9.90;4.47;;;4.00;99.90;;;;;;6245247;28;20053;-84
2023/11/11 01:31:48;;;;;;;15.27;5.47;;;3.90;99.90;;;;;;6272246;28;20420;-85
2023/11/11 01:34:50;;;;;;;11.45;5.03;;;3.80;99.90;;;;;;6230963;28;20057;-84
2023/11/11 01:37:51;;;;;;;8.82;4.38;;;3.90;99.90;;;;;;6272248;28;20053;-84
2023/11/11 01:40:53;;;;;;;13.00;5.07;;;3.80;99.90;;;;;;6248085;28;20662;-85
2023/11/11 01:43:55;;;;;;;9.73;4.75;;;3.80;99.90;;;;;;6248733;28;20512;-85
2023/11/11 01:46:57;;;;;;;11.95;5.00;;;3.70;99.90;;;;;;6247892;28;20060;-85
2023/11/11 01:49:58;;;;;;;9.55;4.72;;;3.80;99.90;;;;;;6254074;28;20056;-84
2023/11/11 01:53:00;;;;;;;11.63;5.03;;;3.70;99.90;;;;;;6230279;28;20062;-84
2023/11/11 01:56:04;;;;;;;14.02;5.22;;;3.80;99.90;;;;;;6254418;28;20508;-85
2023/11/11 01:59:06;;;;;;;9.18;4.82;;;3.80;99.90;;;;;;6242645;28;20111;-84
2023/11/11 02:02:08;;;;;;;12.40;4.97;;;3.80;99.90;;;;;;6254010;28;20408;-84
2023/11/11 02:05:09;;;;;;;9.45;4.82;;;3.70;99.90;;;;;;6230918;28;20045;-84
2023/11/11 02:08:11;;;;;;;11.50;5.00;;;3.60;99.90;;;;;;6260095;28;20266;-85
2023/11/11 02:11:13;;;;;;;12.63;5.38;;;3.60;99.90;;;;;;6258350;28;20045;-84
2023/11/11 02:14:15;;;;;;;16.10;5.00;;;3.60;99.90;;;;;;6244830;28;20053;-84
2023/11/11 02:17:17;;;;;;;10.98;5.03;;;3.60;99.90;;;;;;6260522;28;20630;-83
2023/11/11 02:20:18;;;;;;;9.52;5.40;;;3.50;99.90;;;;;;6230369;28;20053;-84
2023/11/11 02:23:20;;;;;;;12.38;4.82;;;3.50;99.90;;;;;;6271343;28;20075;-84
2023/11/11 02:26:21;;;;;;;10.43;4.80;;;3.60;99.90;;;;;;6229215;28;20060;-84
2023/11/11 02:29:23;;;;;;;18.50;5.63;;;3.60;99.90;;;;;;6251980;28;20049;-83
2023/11/11 02:32:25;;;;;;;11.00;4.70;;;3.60;99.90;;;;;;6247212;28;20096;-84
2023/11/11 02:35:26;;;;;;;11.70;4.82;;;3.70;99.90;;;;;;6253295;28;20053;-85
2023/11/11 02:38:28;;;;;;;16.52;4.60;;;3.70;99.90;;;;;;6229280;28;20049;-85
2023/11/11 02:41:29;;;;;;;12.82;4.63;;;3.80;99.90;;;;;;6252803;28;20048;-85
2023/11/11 02:44:31;;;;;;;11.15;4.57;;;3.70;99.90;;;;;;6240512;28;20049;-84
2023/11/11 02:47:33;;;;;;;11.02;4.65;;;3.70;99.90;;;;;;6228900;28;20061;-84
2023/11/11 02:50:34;;;;;;;11.13;4.38;;;3.70;99.90;;;;;;6252401;28;20755;-85
2023/11/11 02:53:36;;;;;;;10.52;4.35;;;3.60;99.90;;;;;;6229158;28;20053;-84
2023/11/11 02:56:38;;;;;;;9.88;4.30;;;3.60;99.90;;;;;;6252486;28;20515;-85
2023/11/11 02:59:42;;;;;;;11.32;4.38;;;3.70;99.90;;;;;;6236421;28;20057;-84
2023/11/11 03:02:44;;;;;;;13.25;4.57;;;3.60;99.90;;;;;;6268543;28;20115;-84
2023/11/11 03:05:45;;;;;;;13.50;4.82;;;3.70;99.90;;;;;;6228400;28;20111;-84
2023/11/11 03:08:47;;;;;;;12.57;4.78;;;3.70;99.90;;;;;;6233547;28;20041;-84
2023/11/11 03:11:50;;;;;;;11.15;4.70;;;3.70;99.90;;;;;;6252892;28;20416;-84
2023/11/11 03:14:52;;;;;;;14.40;5.20;;;3.80;99.90;;;;;;6225375;28;20067;-84
2023/11/11 03:17:53;;;;;;;10.57;5.03;;;3.80;99.90;;;;;;6297843;22;20075;-85
2023/11/11 03:20:55;;;;;;;12.10;4.45;;;3.90;99.90;;;;;;6245862;28;20053;-84
2023/11/11 03:23:57;;;;;;;9.52;4.30;;;4.00;99.90;;;;;;6251631;28;20060;-85
2023/11/11 03:26:59;;;;;;;13.00;4.70;;;3.90;99.90;;;;;;6270203;28;20828;-85
2023/11/11 03:30:00;;;;;;;10.68;4.40;;;3.80;99.90;;;;;;6244834;28;20071;-85
2023/11/11 03:33:02;;;;;;;9.63;4.05;;;3.80;99.90;;;;;;6252218;28;20063;-84
2023/11/11 03:36:04;;;;;;;13.50;4.53;;;3.80;99.90;;;;;;6252469;28;20407;-85
2023/11/11 03:39:05;;;;;;;12.50;4.53;;;3.80;99.90;;;;;;6227961;28;20497;-85
2023/11/11 03:42:07;;;;;;;10.30;3.95;;;3.80;99.90;;;;;;6251519;28;20053;-84
2023/11/11 03:45:12;;;;;;;9.50;4.55;;;3.70;99.90;;;;;;6250147;28;20059;-84
2023/11/11 03:48:14;;;;;;;8.82;4.03;;;3.70;99.90;;;;;;6227088;28;20497;-84
2023/11/11 03:51:16;;;;;;;9.65;4.80;;;3.60;99.90;;;;;;6268890;28;20049;-84
2023/11/11 03:54:18;;;;;;;18.45;5.45;;;3.50;99.90;;;;;;6227780;28;20050;-84
2023/11/11 03:57:19;;;;;;;11.23;4.10;;;3.40;99.90;;;;;;6251352;28;20048;-84
2023/11/11 04:00:21;;;;;;;10.30;4.53;;;3.40;99.90;;;;;;6250127;28;20061;-84
2023/11/11 04:03:23;;;;;;;9.88;4.22;;;3.40;99.90;;;;;;6227745;28;20129;-84
2023/11/11 04:06:24;;;;;;;11.05;4.25;;;3.40;99.90;;;;;;6250846;28;20059;-86
2023/11/11 04:09:30;;;;;;;12.32;4.80;;;3.40;99.90;;;;;;6251224;28;20053;-84
2023/11/11 04:12:31;;;;;;;11.30;4.40;;;3.40;99.90;;;;;;6244558;28;20056;-85
2023/11/11 04:15:33;;;;;;;10.68;4.60;;;3.40;99.90;;;;;;6249380;28;20418;-84
2023/11/11 04:18:35;;;;;;;12.13;4.50;;;3.40;99.90;;;;;;6244722;28;20053;-83
2023/11/11 04:21:36;;;;;;;9.95;3.92;;;3.30;99.90;;;;;;6268291;28;20064;-84
2023/11/11 04:24:38;;;;;;;10.38;4.10;;;3.30;99.90;;;;;;6227191;28;20049;-84
2023/11/11 04:27:40;;;;;;;9.05;3.50;;;3.30;99.90;;;;;;6250651;28;20053;-84
2023/11/11 04:30:42;;;;;;;12.15;4.38;;;3.20;99.90;;;;;;6247272;28;20087;-84
2023/11/11 04:33:44;;;;;;;15.07;4.15;;;3.20;99.90;;;;;;6226053;28;20119;-84
2023/11/11 04:36:47;;;;;;;11.57;4.72;;;3.10;99.90;;;;;;6278774;28;20057;-84
2023/11/11 04:39:48;;;;;;;17.33;4.68;;;3.00;99.90;;;;;;6241970;28;20053;-83
2023/11/11 04:42:50;;;;;;;11.30;4.32;;;3.00;99.90;;;;;;6264220;28;20057;-83
2023/11/11 04:45:52;;;;;;;11.55;4.30;;;3.10;99.90;;;;;;6258317;28;20057;-83
2023/11/11 04:48:53;;;;;;;13.70;4.43;;;3.10;99.90;;;;;;6261998;28;20050;-84
2023/11/11 04:51:56;;;;;;;10.90;4.50;;;3.00;99.90;;;;;;6285150;28;20059;-85
2023/11/11 04:54:58;;;;;;;10.05;4.28;;;3.10;99.90;;;;;;6261590;28;20061;-83
2023/11/11 04:58:00;;;;;;;12.50;4.57;;;3.20;99.90;;;;;;6263729;28;20053;-83
2023/11/11 05:01:03;;;;;;;13.80;4.55;;;3.20;99.90;;;;;;6249361;28;20451;-83
2023/11/11 05:04:04;;;;;;;14.25;4.45;;;3.20;99.90;;;;;;6251563;28;20053;-84
2023/11/11 05:07:06;;;;;;;8.88;3.70;;;3.20;99.90;;;;;;6242390;28;20523;-82
2023/11/11 05:10:15;;;;;;;11.27;4.53;;;3.30;99.90;;;;;;6228216;28;20058;-83
2023/11/11 05:13:19;;;;;;;8.50;4.30;;;3.30;99.90;;;;;;6231881;28;20415;-84
2023/11/11 05:16:27;;;;;;;12.45;4.40;;;3.40;99.90;;;;;;6251706;28;20056;-83
2023/11/11 05:19:29;;;;;;;12.45;4.50;;;3.40;99.90;;;;;;6227837;28;20593;-84
2023/11/11 05:22:30;;;;;;;10.38;4.22;;;3.40;99.90;;;;;;6251915;28;20411;-83
2023/11/11 05:25:32;;;;;;;10.90;4.10;;;3.30;99.90;;;;;;6252185;28;20049;-84
2023/11/11 05:28:34;;;;;;;10.63;4.30;;;3.30;99.90;;;;;;6230936;28;20049;-83
2023/11/11 05:31:36;;;;;;;9.98;4.20;;;3.30;99.90;;;;;;6251475;28;20455;-82
2023/11/11 05:34:38;;;;;;;10.35;4.63;;;3.30;99.90;;;;;;6226842;28;20142;-83
2023/11/11 05:37:39;;;;;;;12.98;4.90;;;3.30;99.90;;;;;;6250808;28;20048;-84
2023/11/11 05:40:41;;;;;;;11.10;4.30;;;3.30;99.90;;;;;;6268313;28;20064;-84
2023/11/11 05:43:43;;;;;;;10.85;4.13;;;3.40;99.90;;;;;;6232546;28;20397;-83
2023/11/11 05:46:45;;;;;;;11.52;4.22;;;3.50;99.90;;;;;;6255465;28;20461;-84
2023/11/11 05:49:47;;;;;;;11.95;4.15;;;3.60;99.90;;;;;;6248854;28;20060;-83
2023/11/11 05:52:49;;;;;;;9.80;4.00;;;3.70;99.90;;;;;;6254576;28;20049;-83
2023/11/11 05:55:51;;;;;;;9.63;3.97;;;3.70;99.90;;;;;;6255567;28;20056;-83
2023/11/11 05:58:53;;;;;;;11.75;4.32;;;3.80;99.90;;;;;;6235697;28;20041;-85
2023/11/11 06:01:55;;;;;;;11.30;4.13;;;3.70;99.90;;;;;;6255536;28;20094;-84
2023/11/11 06:04:57;;;;;;;12.30;4.28;;;3.80;99.90;;;;;;6230956;28;20042;-84
2023/11/11 06:07:58;;;;;;;8.95;4.03;;;3.90;99.90;;;;;;6270583;28;20057;-85
2023/11/11 06:11:00;;;;;;;9.32;4.07;;;3.80;99.90;;;;;;6230913;28;20049;-83
2023/11/11 06:14:01;;;;;;;10.43;3.88;;;3.90;99.90;;;;;;6241246;28;20049;-84
2023/11/11 06:17:03;;;;;;;12.20;3.70;;;3.90;99.90;;;;;;6247090;28;20064;-85
2023/11/11 06:20:05;;;;;;;12.15;3.90;;;3.80;99.90;;;;;;6230400;28;20504;-84
2023/11/11 06:23:07;;;;;;;10.02;3.65;;;3.80;99.90;;;;;;6254325;28;20541;-84
2023/11/11 06:26:12;;;;;;;8.43;3.47;;;3.70;99.90;;;;;;6247540;28;20049;-85
2023/11/11 06:29:14;;;;;;;10.70;4.00;;;3.70;99.90;;;;;;6250715;28;20136;-84
2023/11/11 06:32:15;;;;;;;10.70;3.55;;;3.60;99.90;;;;;;6230738;28;20057;-84
2023/11/11 06:35:18;;;;;;;8.50;3.50;;;3.60;99.90;;;;;;6253677;28;20127;-84
2023/11/11 06:38:19;;;;;;;11.02;3.78;;;3.50;99.90;;;;;;6254302;28;20064;-84
2023/11/11 06:41:22;;;;;;;12.15;3.83;;;3.50;99.90;;;;;;6247807;28;20057;-84
2023/11/11 06:44:24;;;;;;;10.25;3.80;;;3.50;99.90;;;;;;6252191;28;20059;-84
2023/11/11 06:47:26;;;;;;;10.50;4.05;;;3.50;99.90;;;;;;6229597;28;20083;-83
2023/11/11 06:50:28;;;;;;;10.50;3.67;;;3.40;99.90;;;;;;6252759;28;20053;-84
2023/11/11 06:53:30;;;;;;;10.77;4.13;;;3.40;99.90;;;;;;6254028;28;20064;-83
2023/11/11 06:56:32;;;;;;;11.82;3.75;;;3.50;99.90;;;;;;6228969;28;20061;-83
2023/11/11 06:59:33;;;;;;;10.85;3.83;;;3.50;99.90;;;;;;6250399;28;20053;-84
2023/11/11 07:02:35;;;;;;;11.20;3.88;;;3.50;99.90;;;;;;6246604;28;20064;-83
2023/11/11 07:05:37;;;;;;;10.30;4.30;;;3.50;99.90;;;;;;6253064;28;20056;-83
2023/11/11 07:08:39;;;;;;;11.30;4.38;;;3.50;99.90;;;;;;6235178;28;20057;-83
2023/11/11 07:11:40;;;;;;;9.38;4.22;;;3.50;99.90;;;;;;6270602;28;20057;-84
2023/11/11 07:14:42;;;;;;;12.18;4.05;;;3.50;99.90;;;;;;6241188;28;20053;-84
2023/11/11 07:17:44;;;;;;;12.20;4.00;;;3.50;99.90;;;;;;6240189;28;20057;-84
2023/11/11 07:20:46;;;;;;;9.95;4.45;;;3.60;99.90;;;;;;6252515;28;20064;-83
2023/11/11 07:23:48;;;;;;;10.20;4.68;;;3.70;99.90;;;;;;6252483;28;20048;-85
2023/11/11 07:26:50;;;;;;;13.13;4.88;;;3.70;99.90;;;;;;6228757;28;20049;-84
2023/11/11 07:29:52;;;;;;;10.35;4.03;;;3.80;99.90;;;;;;6250193;28;20083;-83
2023/11/11 07:32:54;;;;;;;11.48;4.07;;;3.70;99.90;;;;;;6252875;28;20064;-85
2023/11/11 07:36:04;;;;;;;10.60;4.07;;;3.80;99.90;;;;;;6245375;28;20479;-84
2023/11/11 07:39:07;;;;;;;9.32;4.20;;;3.80;99.90;;;;;;6270467;28;20049;-84
2023/11/11 07:42:08;;;;;;;10.77;3.85;;;3.80;99.90;;;;;;6246040;28;20057;-84
2023/11/11 07:45:11;;;;;;;11.45;4.13;;;3.80;99.90;;;;;;6250782;28;20067;-84
2023/11/11 07:48:13;;;;;;;13.68;4.53;;;3.80;99.90;;;;;;6228113;28;20056;-83
2023/11/11 07:51:15;;;;;;;11.50;3.60;;;3.80;99.90;;;;;;6252251;28;20077;-83
2023/11/11 07:54:16;;;;;;;11.88;4.07;;;3.90;99.90;;;;;;6252749;28;20049;-84
2023/11/11 07:57:18;;;;;;;8.85;3.75;;;4.00;99.90;;;;;;6228831;28;20049;-83
2023/11/11 08:00:40;;;;;;;13.00;4.47;;;4.00;99.90;;;;;;6242723;28;20546;-83
2023/11/11 08:03:42;;;;;;;9.30;3.80;;;4.00;99.90;;;;;;6251674;28;20049;-83
2023/11/11 08:06:44;;;;;;;10.30;4.13;;;4.10;99.90;;;;;;6226137;28;20056;-84
2023/11/11 08:09:45;;;;;;;10.18;3.78;;;4.20;99.90;;;;;;6227198;28;20489;-83
2023/11/11 08:12:47;;;;;;;12.18;4.20;;;4.20;99.90;;;;;;6269214;28;20049;-84
2023/11/11 08:15:49;;;;;;;10.30;4.30;;;4.20;99.90;;;;;;6224663;28;20061;-83
2023/11/11 08:18:51;;;;;;;13.15;4.10;;;4.30;99.90;;;;;;6243616;28;20520;-84
2023/11/11 08:21:53;;;;;;;15.18;5.00;;;4.30;99.90;;;;;;6268687;28;20158;-81
2023/11/11 08:24:55;;;;;;;11.50;4.07;;;4.40;99.90;;;;;;6228436;28;20041;-83
2023/11/11 08:27:56;;;;;;;10.73;4.18;;;4.50;99.90;;;;;;6251112;28;20056;-83
2023/11/11 08:30:58;;;;;;;11.57;4.07;;;4.50;99.90;;;;;;6251175;28;20466;-84
2023/11/11 08:34:04;;;;;;;12.85;4.28;;;4.60;99.90;;;;;;6228520;28;20056;-86
2023/11/11 08:37:06;;;;;;;9.57;4.43;;;4.60;99.90;;;;;;6267771;28;20064;-86
2023/11/11 08:40:08;;;;;;;10.55;4.20;;;4.60;99.90;;;;;;6227766;28;20160;-84
2023/11/11 08:43:09;;;;;;;10.30;4.38;;;4.70;99.90;;;;;;6249702;28;20432;-81
2023/11/11 08:46:12;;;;;;;9.35;4.68;;;4.80;99.90;;;;;;6252107;28;20048;-84
2023/11/11 08:49:14;;;;;;;13.05;4.63;;;4.90;99.90;;;;;;6227612;28;20053;-83
2023/11/11 08:52:15;;;;;;;12.00;4.78;;;4.90;99.90;;;;;;6252434;28;20061;-84
2023/11/11 08:55:18;;;;;;;10.23;4.43;;;5.00;99.90;;;;;;6254010;28;20161;-83
2023/11/11 08:58:20;;;;;;;9.38;3.45;;;5.40;99.90;;;;;;6231831;28;20231;-87
2023/11/11 09:01:21;;;;;;;7.38;3.00;;;6.10;99.90;;;;;;6259927;28;20056;-87
2023/11/11 09:04:23;;;;;;;6.53;2.88;;;7.10;99.90;;;;;;6261286;28;20037;-84
2023/11/11 09:07:25;;;;;;;7.32;2.40;;;7.70;99.90;;;;;;6293250;28;20107;-85
2023/11/11 09:10:27;;;;;;;6.72;2.83;;;8.20;97.70;;;;;;6273644;28;20060;-86
2023/11/11 09:13:33;;;;;;;7.25;2.70;;;8.90;98.40;;;;;;6247113;28;20144;-85
2023/11/11 09:16:35;;;;;;;7.60;2.50;;;9.40;91.50;;;;;;6258667;28;20057;-86
2023/11/11 09:19:36;;;;;;;8.73;2.70;;;10.00;93.00;;;;;;6255439;28;20045;-86
2023/11/11 09:22:38;;;;;;;7.05;2.83;;;10.30;84.80;;;;;;6258377;28;20052;-85
2023/11/11 09:25:40;;;;;;;8.52;2.30;;;10.80;87.10;;;;;;6233532;28;20065;-86
2023/11/11 09:28:42;;;;;;;6.75;2.60;;;11.60;64.70;;;;;;6265256;28;20049;-87
2023/11/11 09:31:44;;;;;;;5.90;2.28;;;12.10;22.00;;;;;;6233229;28;20053;-86
2023/11/11 09:34:45;;;;;;;5.90;2.40;;;12.40;56.70;;;;;;6257293;28;20547;-87
2023/11/11 09:37:48;;;;;;;5.22;2.08;;;12.60;13.30;;;;;;6257225;28;20053;-85
2023/11/11 09:40:50;;;;;;;3.88;1.90;;;12.70;35.70;;;;;;6250020;28;20107;-84
2023/11/11 09:43:52;;;;;;;7.72;2.22;;;12.40;3.00;;;;;;6254650;28;20045;-86
2023/11/11 09:46:54;;;;;;;5.78;2.17;;;12.50;1.00;;;;;;6235345;28;20139;-87
2023/11/11 09:49:56;;;;;;;4.80;2.00;;;12.70;8.40;;;;;;6258533;28;20057;-86
2023/11/11 09:52:58;;;;;;;6.40;2.08;;;13.20;1.00;;;;;;6275865;28;20049;-87
2023/11/11 09:56:00;;;;;;;4.75;2.10;;;13.30;1.00;;;;;;6251264;28;20053;-86
2023/11/11 09:59:02;;;;;;;5.90;2.08;;;13.40;1.00;;;;;;6253695;28;20080;-87
2023/11/11 10:02:03;;;;;;;5.72;2.35;;;13.60;1.00;;;;;;6232240;28;20060;-86
2023/11/11 10:05:05;;;;;;;4.82;1.88;;;13.90;1.00;;;;;;6257247;28;20045;-86
2023/11/11 10:08:07;;;;;;;4.93;1.92;;;13.90;1.00;;;;;;6254522;28;20049;-86
2023/11/11 10:11:10;;;;;;;4.07;1.80;;;14.20;1.00;;;;;;6249753;28;20767;-86
2023/11/11 10:14:12;;;;;;;4.43;1.80;;;14.30;1.00;;;;;;6242228;28;20133;-86
2023/11/11 10:17:14;;;;;;;5.82;2.72;;;14.50;1.00;;;;;;6247240;28;20132;-88
2023/11/11 10:20:15;;;;;;;5.00;1.95;;;14.60;1.00;;;;;;6272363;28;20078;-86
2023/11/11 10:23:17;;;;;;;4.25;1.70;;;14.50;1.00;;;;;;6231638;28;20053;-86
2023/11/11 10:26:22;;;;;;;4.85;2.28;;;14.70;1.00;;;;;;6274794;28;20056;-87
2023/11/11 10:29:24;;;;;;;5.57;1.80;;;14.80;1.00;;;;;;6258384;28;20060;-86
2023/11/11 10:32:27;;;;;;;6.70;2.00;;;15.10;1.00;;;;;;6231367;28;20452;-86
2023/11/11 10:35:29;;;;;;;5.57;1.55;;;15.00;1.00;;;;;;6272665;28;20530;-86
2023/11/11 10:38:31;;;;;;;4.95;1.90;;;15.20;1.00;;;;;;6247580;28;20480;-86
2023/11/11 10:41:32;;;;;;;4.70;2.10;;;15.20;1.00;;;;;;6253395;28;20060;-87
2023/11/11 10:44:34;;;;;;;4.57;1.73;;;15.40;1.00;;;;;;6257182;28;20072;-85
2023/11/11 10:47:36;;;;;;;5.85;1.70;;;15.80;1.00;;;;;;6254830;28;20045;-85
2023/11/11 10:50:38;;;;;;;4.32;1.80;;;15.70;1.00;;;;;;6229751;28;20053;-87
2023/11/11 10:53:40;;;;;;;6.43;2.13;;;15.80;1.00;;;;;;6254954;28;20115;-85
2023/11/11 10:56:43;;;;;;;6.45;2.00;;;15.80;1.00;;;;;;6231426;28;20408;-85
2023/11/11 10:59:45;;;;;;;8.25;1.80;;;15.80;1.00;;;;;;6253130;28;20061;-84
2023/11/11 11:02:49;;;;;;;4.68;1.40;;;16.00;1.00;;;;;;6232610;28;20056;-87
2023/11/11 11:05:52;;;;;;;4.55;1.90;;;16.10;1.00;;;;;;6254597;28;20064;-85
2023/11/11 11:08:53;;;;;;;4.75;1.42;;;16.30;1.00;;;;;;6234135;28;20056;-85
2023/11/11 11:11:55;;;;;;;3.70;1.33;;;16.40;1.00;;;;;;6254259;28;20052;-85
2023/11/11 11:15:00;;;;;;;4.20;1.60;;;16.60;1.00;;;;;;6249441;28;20139;-85
2023/11/11 11:18:02;;;;;;;4.65;1.50;;;16.50;1.00;;;;;;6240844;28;20144;-84
2023/11/11 11:21:07;;;;;;;4.13;1.40;;;17.10;1.00;;;;;;6247082;28;20053;-86
2023/11/11 11:24:09;;;;;;;5.57;1.48;;;16.90;1.00;;;;;;6252371;28;20067;-85
2023/11/11 11:27:11;;;;;;;6.95;1.70;;;16.60;1.00;;;;;;6249020;28;20049;-84
2023/11/11 11:30:12;;;;;;;5.40;1.70;;;16.20;1.00;;;;;;6248341;28;20064;-85
2023/11/11 11:33:17;;;;;;;6.65;1.67;;;16.50;1.00;;;;;;6253901;28;20527;-84
2023/11/11 11:36:19;;;;;;;5.90;1.50;;;16.30;1.00;;;;;;6244837;28;20111;-85
2023/11/11 11:39:21;;;;;;;3.90;1.30;;;16.10;1.00;;;;;;6252481;28;20060;-87
2023/11/11 11:42:24;;;;;;;3.40;1.10;;;16.30;1.00;;;;;;6231013;28;20057;-82
2023/11/11 11:45:27;;;;;;;4.05;1.20;;;16.40;1.00;;;;;;6252682;28;20060;-86
2023/11/11 11:48:29;;;;;;;6.32;1.60;;;16.70;1.00;;;;;;6253089;28;20052;-84
2023/11/11 11:51:31;;;;;;;4.50;1.50;;;16.60;1.00;;;;;;6246562;28;20551;-83
2023/11/11 11:54:32;;;;;;;3.47;1.30;;;16.60;1.00;;;;;;6253685;28;20056;-85
2023/11/11 11:57:34;;;;;;;5.63;1.40;;;16.70;1.00;;;;;;6254047;28;20400;-84
2023/11/11 12:00:36;;;;;;;4.20;1.45;;;16.90;1.00;;;;;;6227147;28;20052;-84
2023/11/11 12:03:38;;;;;;;4.75;1.50;;;16.80;1.00;;;;;;6270937;28;20061;-88
2023/11/11 12:06:40;;;;;;;4.82;1.42;;;16.80;1.00;;;;;;6253156;28;20061;-93
2023/11/11 12:09:42;;;;;;;3.45;1.30;;;17.00;1.00;;;;;;6227466;28;20068;-88
2023/11/11 12:12:44;;;;;;;3.63;1.40;;;16.90;1.00;;;;;;6254316;28;20056;-86
2023/11/11 12:15:46;;;;;;;5.47;1.70;;;17.00;1.00;;;;;;6250728;28;20049;-85
2023/11/11 12:18:48;;;;;;;5.50;1.45;;;16.90;1.00;;;;;;6228677;28;20065;-85
2023/11/11 12:21:50;;;;;;;5.55;1.40;;;16.70;1.00;;;;;;6250896;28;20064;-85
2023/11/11 12:24:52;;;;;;;3.63;1.50;;;16.70;1.00;;;;;;6271409;28;20134;-85
2023/11/11 12:27:54;;;;;;;5.55;1.52;;;15.90;1.00;;;;;;6247054;28;20053;-84
2023/11/11 12:30:55;;;;;;;5.03;1.30;;;16.20;1.00;;;;;;6271883;28;20393;-85
2023/11/11 12:33:57;;;;;;;4.65;1.35;;;16.40;1.00;;;;;;6232248;28;20103;-86
2023/11/11 12:36:59;;;;;;;5.80;1.50;;;16.70;1.00;;;;;;6272119;28;20060;-85
2023/11/11 12:40:01;;;;;;;4.32;1.35;;;16.60;1.00;;;;;;6249463;28;20096;-85
2023/11/11 12:43:02;;;;;;;3.75;1.20;;;16.60;1.00;;;;;;6273454;28;20060;-84
2023/11/11 12:46:04;;;;;;;6.68;1.58;;;16.00;1.00;;;;;;6267057;28;20061;-84
2023/11/11 12:49:06;;;;;;;6.35;1.58;;;16.10;1.00;;;;;;6250051;28;20077;-84
2023/11/11 12:52:07;;;;;;;5.93;1.55;;;16.00;1.00;;;;;;6279669;28;20056;-85
2023/11/11 12:55:09;;;;;;;5.47;1.35;;;15.90;1.00;;;;;;6249209;28;20050;-81
2023/11/11 12:58:12;;;;;;;3.58;1.23;;;15.80;1.00;;;;;;6253206;28;20401;-84
2023/11/11 13:01:14;;;;;;;6.20;1.25;;;16.00;1.00;;;;;;6274788;28;20064;-85
2023/11/11 13:04:16;;;;;;;5.75;1.70;;;16.40;1.00;;;;;;6244413;28;20058;-85
2023/11/11 13:07:18;;;;;;;5.10;1.30;;;16.20;1.00;;;;;;6274618;28;20056;-87
2023/11/11 13:10:21;;;;;;;3.55;1.30;;;15.90;1.00;;;;;;6253055;28;20049;-85
2023/11/11 13:13:29;;;;;;;4.70;1.50;;;15.20;1.00;;;;;;6247596;28;20766;-84
2023/11/11 13:16:31;;;;;;;4.13;1.30;;;15.60;1.00;;;;;;6248184;28;20559;-85
2023/11/11 13:19:34;;;;;;;3.42;1.45;;;15.80;1.00;;;;;;6227412;28;20049;-84
2023/11/11 13:22:37;;;;;;;5.75;1.30;;;15.20;1.00;;;;;;6250803;28;20052;-85
2023/11/11 13:25:38;;;;;;;2.70;1.20;;;14.90;1.00;;;;;;6253179;28;20045;-84
2023/11/11 13:28:41;;;;;;;2.95;1.10;;;15.20;1.00;;;;;;6234540;28;20087;-85
2023/11/11 13:31:42;;;;;;;3.30;1.42;;;15.20;1.00;;;;;;6253289;28;20060;-86
2023/11/11 13:34:44;;;;;;;2.80;1.05;;;15.30;1.00;;;;;;6227695;28;20056;-85
2023/11/11 13:37:46;;;;;;;3.90;1.17;;;15.40;1.00;;;;;;6251349;28;20565;-86
2023/11/11 13:40:48;;;;;;;3.40;1.10;;;15.60;1.00;;;;;;6253951;28;20403;-85
2023/11/11 13:43:51;;;;;;;3.80;1.00;;;15.80;1.00;;;;;;6234470;28;20057;-84
2023/11/11 13:46:52;;;;;;;6.43;1.20;;;15.60;1.00;;;;;;6228297;28;20065;-84
2023/11/11 13:49:55;;;;;;;3.97;1.08;;;15.10;1.00;;;;;;6251090;28;20496;-84
2023/11/11 13:52:59;;;;;;;3.15;0.95;;;15.30;1.00;;;;;;6251947;28;20103;-85
2023/11/11 13:56:03;;;;;;;5.05;1.02;;;15.60;1.00;;;;;;6226399;28;20049;-84
2023/11/11 13:59:04;;;;;;;3.65;1.45;;;15.70;1.00;;;;;;6239122;28;20699;-87
2023/11/11 14:02:11;;;;;;;5.45;1.00;;;15.90;1.00;;;;;;6245568;28;20079;-86
2023/11/11 14:05:13;;;;;;;3.30;0.85;;;15.80;1.00;;;;;;6253129;28;20063;-85
2023/11/11 14:08:17;;;;;;;2.90;0.82;;;15.70;1.00;;;;;;6243011;28;20140;-86
2023/11/11 14:11:22;;;;;;;3.30;1.00;;;15.80;1.00;;;;;;6231237;28;20060;-88
2023/11/11 14:14:25;;;;;;;7.47;1.60;;;15.70;1.00;;;;;;6240780;28;20053;-84
2023/11/11 14:17:27;;;;;;;3.92;1.02;;;15.60;1.00;;;;;;6227629;28;20584;-84
2023/11/11 14:20:32;;;;;;;2.83;0.80;;;15.50;1.00;;;;;;6226206;28;20045;-84
2023/11/11 14:23:36;;;;;;;3.67;0.80;;;15.20;1.00;;;;;;6205519;28;20421;-85
2023/11/11 14:26:38;;;;;;;4.50;1.30;;;14.50;1.00;;;;;;6224022;28;20068;-84
2023/11/11 14:29:40;;;;;;;2.88;1.00;;;13.60;1.00;;;;;;6212391;28;20780;-84
2023/11/11 14:32:42;;;;;;;4.35;1.08;;;12.90;1.00;;;;;;6224490;28;20524;-85
2023/11/11 14:35:45;;;;;;;4.20;1.27;;;12.50;1.00;;;;;;6198031;28;20060;-85
2023/11/11 14:38:47;;;;;;;4.75;1.20;;;12.00;1.00;;;;;;6223894;28;20061;-84
2023/11/11 14:41:50;;;;;;;4.78;1.35;;;11.70;1.00;;;;;;6212802;28;20054;-84
2023/11/11 14:44:55;;;;;;;3.42;1.30;;;11.50;1.00;;;;;;6235610;28;20056;-83
2023/11/11 14:47:56;;;;;;;4.63;1.23;;;11.30;1.00;;;;;;6206625;28;20073;-82
2023/11/11 14:50:58;;;;;;;4.85;1.23;;;11.10;1.00;;;;;;6231039;28;20158;-84
2023/11/11 14:54:00;;;;;;;4.32;1.20;;;11.00;1.00;;;;;;6206717;28;20061;-83
2023/11/11 14:57:03;;;;;;;6.22;1.48;;;10.90;1.00;;;;;;6227090;28;20216;-89
2023/11/11 15:00:05;;;;;;;5.75;1.50;;;10.80;1.00;;;;;;6203059;28;20064;-88
2023/11/11 15:03:06;;;;;;;6.00;1.20;;;10.70;1.00;;;;;;6226045;28;20175;-90
2023/11/11 15:06:10;;;;;;;4.32;1.23;;;10.70;1.00;;;;;;6227471;28;20050;-88
2023/11/11 15:09:18;;;;;;;4.70;1.20;;;10.70;1.00;;;;;;6224208;28;20116;-87
2023/11/11 15:12:20;;;;;;;3.35;1.00;;;10.50;1.00;;;;;;6218075;28;20137;-85
2023/11/11 15:15:22;;;;;;;5.22;1.30;;;10.20;1.00;;;;;;6239678;28;20525;-83
2023/11/11 15:18:24;;;;;;;5.45;1.52;;;10.00;1.00;;;;;;6267616;28;20053;-85
2023/11/11 15:21:27;;;;;;;4.18;1.50;;;9.80;1.00;;;;;;6234933;28;20095;-84
2023/11/11 15:24:29;;;;;;;5.97;1.20;;;9.70;1.00;;;;;;6256467;28;20056;-84
2023/11/11 15:27:31;;;;;;;5.10;1.38;;;9.50;14.40;;;;;;6254706;28;20060;-84
2023/11/11 15:30:33;;;;;;;5.28;1.67;;;9.40;45.70;;;;;;6228179;28;20064;-83
2023/11/11 15:33:35;;;;;;;5.70;1.55;;;9.10;55.20;;;;;;6252800;28;20056;-84
2023/11/11 15:36:37;;;;;;;3.70;1.20;;;9.00;61.60;;;;;;6228718;28;20053;-84
2023/11/11 15:39:41;;;;;;;4.13;1.38;;;8.90;65.20;;;;;;6252653;28;20071;-84
2023/11/11 15:42:44;;;;;;;3.35;1.30;;;8.70;62.40;;;;;;6228703;28;20428;-84
2023/11/11 15:45:46;;;;;;;3.78;1.17;;;8.60;68.00;;;;;;6265316;28;20064;-83
2023/11/11 15:48:47;;;;;;;6.80;1.63;;;8.50;64.70;;;;;;6229598;28;20599;-83
2023/11/11 15:51:49;;;;;;;4.93;2.10;;;8.30;82.20;;;;;;6253264;28;20062;-84
2023/11/11 15:54:51;;;;;;;5.80;2.17;;;8.10;84.70;;;;;;6247371;28;20053;-83